Time;durP1;ratioP1;P1;durP2;ratioP2;P2;SDS_P1;SDS_P2;PMS_P1;PMS_P2;Temp;Humidity;BMP_temperature;BMP_pressure;BME280_temperature;BME280_humidity;BME280_pressure;Samples;Min_cycle;Max_cycle;Signal;HPM_P1;HPM_P2
2021/04/02 00:01:05;;;;;;;36.88;35.17;;;22.10;99.90;;;;;;5097199;28;20028;-55
2021/04/02 00:03:35;;;;;;;35.45;33.55;;;22.30;99.90;;;;;;5096889;28;20024;-53
2021/04/02 00:06:04;;;;;;;50.10;46.85;;;22.30;99.90;;;;;;5097917;28;20032;-58
2021/04/02 00:08:32;;;;;;;35.97;34.22;;;22.40;99.90;;;;;;5096597;28;20024;-58
2021/04/02 00:11:03;;;;;;;35.72;33.85;;;22.50;99.90;;;;;;5096722;28;20040;-59
2021/04/02 00:13:37;;;;;;;31.92;30.42;;;22.80;99.90;;;;;;5096584;28;20070;-60
2021/04/02 00:16:09;;;;;;;31.00;29.40;;;22.90;99.90;;;;;;5096567;28;20027;-58
2021/04/02 00:18:37;;;;;;;29.27;27.77;;;23.20;99.90;;;;;;5097110;28;20372;-60
2021/04/02 00:21:06;;;;;;;28.45;26.70;;;23.20;99.90;;;;;;5096522;28;20077;-59
2021/04/02 00:23:35;;;;;;;21.23;19.85;;;23.40;99.90;;;;;;5096302;28;20365;-60
2021/04/02 00:26:06;;;;;;;18.90;18.00;;;23.20;99.90;;;;;;5096227;28;20059;-60
2021/04/02 00:28:33;;;;;;;17.98;17.08;;;23.50;99.90;;;;;;5096190;28;20072;-60
2021/04/02 00:31:01;;;;;;;19.52;18.52;;;23.70;99.90;;;;;;5096348;28;20073;-58
2021/04/02 00:33:31;;;;;;;19.58;18.45;;;23.70;99.90;;;;;;5096149;28;20502;-60
2021/04/02 00:36:00;;;;;;;18.83;17.92;;;23.60;99.90;;;;;;5096266;28;20028;-59
2021/04/02 00:38:28;;;;;;;19.70;18.75;;;23.50;99.90;;;;;;5096092;28;20024;-60
2021/04/02 00:41:02;;;;;;;20.08;18.83;;;23.40;99.90;;;;;;5096730;28;20421;-58
2021/04/02 00:43:46;;;;;;;20.27;19.17;;;23.40;99.90;;;;;;5096429;28;20020;-60
2021/04/02 00:46:15;;;;;;;17.58;16.48;;;23.50;99.90;;;;;;5096379;28;20024;-60
2021/04/02 00:48:44;;;;;;;17.58;16.80;;;23.60;99.90;;;;;;5095826;28;20126;-60
2021/04/02 00:51:17;;;;;;;17.27;16.40;;;23.50;99.90;;;;;;5095790;28;20024;-57
2021/04/02 00:53:45;;;;;;;15.65;14.50;;;23.90;99.90;;;;;;5095882;28;20016;-58
2021/04/02 00:56:15;;;;;;;16.58;15.77;;;24.10;99.90;;;;;;5095785;28;20028;-62
2021/04/02 00:58:43;;;;;;;16.77;15.88;;;24.10;99.90;;;;;;5095765;28;20080;-62
2021/04/02 01:01:11;;;;;;;26.85;24.55;;;24.00;99.90;;;;;;5095885;28;20049;-63
2021/04/02 01:03:40;;;;;;;15.18;14.35;;;24.00;99.90;;;;;;5095702;28;20502;-61
2021/04/02 01:06:17;;;;;;;13.63;12.82;;;24.00;99.90;;;;;;5095512;28;20533;-62
2021/04/02 01:08:45;;;;;;;14.57;13.68;;;23.70;99.90;;;;;;5095863;28;20024;-63
2021/04/02 01:11:15;;;;;;;14.05;12.82;;;23.70;99.90;;;;;;5095732;28;20016;-63
2021/04/02 01:13:57;;;;;;;13.10;12.50;;;23.80;99.90;;;;;;5096018;28;20468;-63
2021/04/02 01:16:24;;;;;;;27.00;24.33;;;23.90;99.90;;;;;;5095764;28;20019;-63
2021/04/02 01:19:25;;;;;;;12.13;11.23;;;23.80;99.90;;;;;;5095945;28;20024;-62
2021/04/02 01:22:04;;;;;;;10.88;10.20;;;23.70;99.90;;;;;;5095349;28;20028;-62
2021/04/02 01:24:58;;;;;;;9.50;9.02;;;23.60;99.90;;;;;;5095188;28;20036;-64
2021/04/02 01:27:46;;;;;;;8.63;8.20;;;23.80;99.90;;;;;;5095385;28;20028;-63
2021/04/02 01:30:15;;;;;;;8.90;8.40;;;24.20;99.90;;;;;;5095019;28;20032;-63
2021/04/02 01:32:47;;;;;;;8.30;7.80;;;24.60;99.90;;;;;;5094616;28;20052;-63
2021/04/02 01:35:32;;;;;;;8.73;8.18;;;24.80;99.90;;;;;;5094963;28;20099;-63
2021/04/02 01:38:05;;;;;;;8.48;7.78;;;25.20;99.90;;;;;;5095224;28;20078;-66
2021/04/02 01:40:36;;;;;;;8.40;7.65;;;25.40;99.90;;;;;;5094897;28;20072;-60
2021/04/02 01:43:15;;;;;;;8.60;7.90;;;25.60;99.90;;;;;;5095145;28;20030;-63
2021/04/02 01:45:44;;;;;;;8.10;7.53;;;26.00;99.90;;;;;;5093882;28;20439;-60
2021/04/02 01:48:19;;;;;;;9.15;8.30;;;25.80;99.90;;;;;;5093392;28;20073;-64
2021/04/02 01:50:50;;;;;;;8.93;8.05;;;26.20;99.90;;;;;;5094732;28;20074;-64
2021/04/02 01:53:21;;;;;;;11.32;9.75;;;26.30;99.90;;;;;;5094763;28;20465;-63
2021/04/02 01:55:53;;;;;;;11.40;10.48;;;26.60;99.90;;;;;;5094402;28;20024;-63
2021/04/02 01:58:22;;;;;;;9.57;8.98;;;26.80;99.90;;;;;;5094791;28;20039;-64
2021/04/02 02:00:57;;;;;;;8.20;7.60;;;27.00;99.90;;;;;;5094393;28;20027;-63
2021/04/02 02:03:27;;;;;;;8.98;8.55;;;26.50;99.90;;;;;;5094469;28;20047;-64
2021/04/02 02:05:57;;;;;;;9.90;8.60;;;26.10;99.90;;;;;;5094272;28;20477;-63
2021/04/02 02:08:29;;;;;;;7.97;7.35;;;26.30;99.90;;;;;;5094405;28;20072;-63
2021/04/02 02:11:11;;;;;;;7.75;7.20;;;26.60;99.90;;;;;;5094837;28;20488;-63
2021/04/02 02:13:42;;;;;;;7.40;6.90;;;26.50;99.90;;;;;;5094398;28;20031;-63
2021/04/02 02:16:12;;;;;;;7.47;6.90;;;26.60;99.90;;;;;;5094241;28;20020;-63
2021/04/02 02:18:39;;;;;;;;;;;26.90;99.90;;;;;;5094944;28;20399;-63
2021/04/02 02:21:14;;;;;;;7.80;7.15;;;26.80;99.90;;;;;;5094148;28;19904;-62
2021/04/02 02:23:45;;;;;;;6.93;6.63;;;26.60;99.90;;;;;;5094382;28;20024;-60
2021/04/02 02:26:16;;;;;;;7.40;6.80;;;26.70;99.90;;;;;;5093853;28;20020;-62
2021/04/02 02:28:44;;;;;;;7.90;6.78;;;26.80;99.90;;;;;;5093973;28;20020;-60
2021/04/02 02:31:12;;;;;;;7.25;6.85;;;26.60;99.90;;;;;;5093558;28;20020;-61
2021/04/02 02:33:41;;;;;;;7.25;6.85;;;26.50;99.90;;;;;;5093951;28;20019;-61
2021/04/02 02:36:09;;;;;;;7.32;6.75;;;26.70;99.90;;;;;;5093817;28;20055;-62
2021/04/02 02:38:37;;;;;;;6.90;6.38;;;26.80;99.90;;;;;;5093678;28;20024;-61
2021/04/02 02:41:05;;;;;;;6.53;6.20;;;26.90;99.90;;;;;;5093887;28;20498;-60
2021/04/02 02:43:33;;;;;;;6.43;6.03;;;26.40;99.90;;;;;;5094120;28;20095;-61
2021/04/02 02:46:00;;;;;;;6.78;6.35;;;26.60;99.90;;;;;;5093773;28;20024;-61
2021/04/02 02:48:27;;;;;;;7.45;6.75;;;26.80;99.90;;;;;;5093683;28;20032;-59
2021/04/02 02:50:58;;;;;;;7.13;6.78;;;27.00;99.90;;;;;;5093705;28;20444;-61
2021/04/02 02:53:29;;;;;;;7.30;6.78;;;27.00;99.90;;;;;;5093578;28;20020;-61
2021/04/02 02:55:57;;;;;;;6.80;6.30;;;27.10;99.90;;;;;;5092269;28;20480;-59
2021/04/02 02:58:26;;;;;;;7.90;7.40;;;27.10;99.90;;;;;;5093586;28;20024;-61
2021/04/02 03:00:55;;;;;;;7.32;6.82;;;26.90;99.90;;;;;;5093495;28;20032;-61
2021/04/02 03:03:25;;;;;;;7.35;6.75;;;26.80;99.90;;;;;;5093591;28;20085;-60
2021/04/02 03:05:53;;;;;;;;;;;26.90;99.90;;;;;;5092624;28;20062;-60
2021/04/02 03:08:24;;;;;;;8.00;7.50;;;26.90;99.90;;;;;;5093362;28;19908;-62
2021/04/02 03:10:55;;;;;;;7.88;7.30;;;26.90;99.90;;;;;;5093421;28;20016;-61
2021/04/02 03:13:24;;;;;;;8.18;7.57;;;26.90;99.90;;;;;;5091986;28;20020;-61
2021/04/02 03:15:55;;;;;;;6.78;6.43;;;26.90;99.90;;;;;;5093312;28;20439;-63
2021/04/02 03:18:25;;;;;;;6.63;6.20;;;26.80;99.90;;;;;;5093418;28;20020;-61
2021/04/02 03:20:54;;;;;;;6.47;6.10;;;27.20;99.90;;;;;;5093851;28;20016;-61
2021/04/02 03:23:22;;;;;;;7.90;7.30;;;27.20;99.90;;;;;;5093285;28;20039;-60
2021/04/02 03:25:51;;;;;;;7.30;6.70;;;27.20;99.90;;;;;;5093292;28;20102;-61
2021/04/02 03:28:20;;;;;;;7.03;6.53;;;27.30;99.90;;;;;;5093094;28;20148;-62
2021/04/02 03:30:49;;;;;;;6.43;5.90;;;27.10;99.90;;;;;;5091987;28;20484;-62
2021/04/02 03:33:40;;;;;;;6.75;6.20;;;26.90;99.90;;;;;;5093115;28;20036;-60
2021/04/02 03:36:11;;;;;;;7.07;6.60;;;26.90;99.90;;;;;;5091266;28;20488;-62
2021/04/02 03:38:43;;;;;;;6.82;6.30;;;26.80;99.90;;;;;;5092871;28;20051;-60
2021/04/02 03:41:19;;;;;;;7.05;6.65;;;26.90;99.90;;;;;;5093356;28;20032;-60
2021/04/02 03:43:49;;;;;;;7.70;7.10;;;26.90;99.90;;;;;;5093205;28;20020;-62
2021/04/02 03:46:17;;;;;;;6.88;6.47;;;26.60;99.90;;;;;;5093395;28;20016;-61
2021/04/02 03:48:46;;;;;;;7.40;6.90;;;26.30;99.90;;;;;;5092842;28;20465;-60
2021/04/02 03:51:21;;;;;;;6.80;6.38;;;26.50;99.90;;;;;;5092985;28;20012;-62
2021/04/02 03:53:57;;;;;;;6.78;6.32;;;26.40;99.90;;;;;;5093576;28;20076;-61
2021/04/02 03:56:30;;;;;;;6.90;6.47;;;26.40;99.90;;;;;;5091613;28;20023;-61
2021/04/02 03:58:59;;;;;;;7.15;6.65;;;26.50;99.90;;;;;;5093023;28;20017;-61
2021/04/02 04:01:33;;;;;;;6.90;6.60;;;26.50;99.90;;;;;;5093022;28;20024;-61
2021/04/02 04:04:02;;;;;;;6.75;6.45;;;26.50;99.90;;;;;;5093038;28;20032;-60
2021/04/02 04:06:32;;;;;;;7.45;6.72;;;26.70;99.90;;;;;;5091975;28;20020;-61
2021/04/02 04:09:06;;;;;;;6.65;6.25;;;26.70;99.90;;;;;;5095198;28;20154;-60
2021/04/02 04:11:36;;;;;;;6.75;6.15;;;26.80;99.90;;;;;;5096721;28;20477;-60
2021/04/02 04:14:05;;;;;;;6.70;6.20;;;26.80;99.90;;;;;;5096619;28;20023;-60
2021/04/02 04:16:35;;;;;;;6.72;6.30;;;26.70;99.90;;;;;;5096640;28;20016;-60
2021/04/02 04:19:04;;;;;;;7.10;6.55;;;26.60;99.90;;;;;;5096873;28;20441;-61
2021/04/02 04:21:40;;;;;;;6.25;5.85;;;26.60;99.90;;;;;;5096329;28;20515;-59
2021/04/02 04:24:13;;;;;;;7.05;6.53;;;26.80;99.90;;;;;;5096763;28;20028;-60
2021/04/02 04:26:42;;;;;;;7.07;6.57;;;26.70;99.90;;;;;;5096265;28;20020;-61
2021/04/02 04:29:13;;;;;;;6.97;6.53;;;26.60;99.90;;;;;;5096016;28;20530;-61
2021/04/02 04:31:43;;;;;;;6.88;6.47;;;26.70;99.90;;;;;;5096491;28;20016;-60
2021/04/02 04:34:11;;;;;;;6.90;6.30;;;26.50;99.90;;;;;;5096167;28;20427;-60
2021/04/02 04:36:41;;;;;;;7.00;6.38;;;26.60;99.90;;;;;;5096115;28;20028;-60
2021/04/02 04:39:09;;;;;;;7.68;7.18;;;26.60;99.90;;;;;;5096203;28;20055;-61
2021/04/02 04:41:37;;;;;;;7.40;6.70;;;26.70;99.90;;;;;;5096225;28;20025;-61
2021/04/02 04:44:07;;;;;;;8.10;7.60;;;26.60;99.90;;;;;;5095851;28;20365;-61
2021/04/02 04:46:35;;;;;;;7.55;7.10;;;26.60;99.90;;;;;;5096263;28;20028;-60
2021/04/02 04:49:02;;;;;;;7.80;7.30;;;26.40;99.90;;;;;;5095796;28;20389;-61
2021/04/02 04:51:33;;;;;;;7.40;7.00;;;26.20;99.90;;;;;;5096458;28;20425;-62
2021/04/02 04:54:03;;;;;;;7.95;7.28;;;26.10;99.90;;;;;;5096076;28;20031;-60
2021/04/02 04:56:32;;;;;;;7.30;6.80;;;26.10;99.90;;;;;;5095849;28;20024;-60
2021/04/02 04:59:04;;;;;;;7.88;7.13;;;26.20;99.90;;;;;;5095526;28;20260;-60
2021/04/02 05:01:45;;;;;;;7.55;7.07;;;26.20;99.90;;;;;;5096004;28;20373;-60
2021/04/02 05:04:15;;;;;;;7.28;6.70;;;26.10;99.90;;;;;;5095879;28;20066;-61
2021/04/02 05:06:44;;;;;;;7.50;6.90;;;26.20;99.90;;;;;;5095584;28;20103;-59
2021/04/02 05:09:11;;;;;;;7.43;7.03;;;26.10;99.90;;;;;;5095422;28;20024;-59
2021/04/02 05:11:40;;;;;;;8.55;7.88;;;25.90;99.90;;;;;;5095456;28;20020;-60
2021/04/02 05:14:11;;;;;;;9.20;8.50;;;25.80;99.90;;;;;;5094259;28;20491;-62
2021/04/02 05:16:40;;;;;;;9.00;8.52;;;25.70;99.90;;;;;;5095348;28;20031;-59
2021/04/02 05:19:10;;;;;;;8.75;8.23;;;25.70;99.90;;;;;;5095339;28;20031;-61
2021/04/02 05:21:41;;;;;;;8.45;7.88;;;25.70;99.90;;;;;;5094913;28;20058;-62
2021/04/02 05:24:09;;;;;;;8.27;7.88;;;25.70;99.90;;;;;;5094834;28;20028;-61
2021/04/02 05:26:37;;;;;;;8.63;8.13;;;25.60;99.90;;;;;;5094373;28;20501;-60
2021/04/02 05:29:05;;;;;;;9.00;8.30;;;25.60;99.90;;;;;;5094790;28;20024;-62
2021/04/02 05:31:33;;;;;;;9.23;7.50;;;25.60;99.90;;;;;;5094979;28;20342;-62
2021/04/02 05:34:00;;;;;;;8.70;8.00;;;25.50;99.90;;;;;;5094794;28;20016;-62
2021/04/02 05:36:28;;;;;;;8.52;7.97;;;25.30;99.90;;;;;;5094860;28;20020;-61
2021/04/02 05:38:55;;;;;;;8.32;7.93;;;25.10;99.90;;;;;;5094780;28;20098;-61
2021/04/02 05:41:32;;;;;;;8.77;8.20;;;25.20;99.90;;;;;;5095384;28;20086;-65
2021/04/02 05:44:07;;;;;;;8.65;8.15;;;25.00;99.90;;;;;;5093472;28;20047;-63
2021/04/02 05:46:36;;;;;;;7.82;7.28;;;25.00;99.90;;;;;;5094772;28;20031;-63
2021/04/02 05:49:06;;;;;;;7.50;7.07;;;25.00;99.90;;;;;;5094441;28;20020;-63
2021/04/02 05:51:34;;;;;;;8.57;7.87;;;24.80;99.90;;;;;;5094727;28;20377;-61
2021/04/02 05:54:02;;;;;;;8.35;7.95;;;24.80;99.90;;;;;;5094666;28;20016;-63
2021/04/02 05:56:29;;;;;;;8.45;7.95;;;24.70;99.90;;;;;;5093150;28;20024;-64
2021/04/02 05:58:57;;;;;;;8.20;7.80;;;24.60;99.90;;;;;;5094515;28;20024;-63
2021/04/02 06:01:25;;;;;;;8.60;7.90;;;24.60;99.90;;;;;;5094786;28;20091;-59
2021/04/02 06:03:54;;;;;;;8.55;7.93;;;24.40;99.90;;;;;;5094541;28;20016;-57
2021/04/02 06:06:22;;;;;;;8.73;8.32;;;24.40;99.90;;;;;;5094443;28;20025;-58
2021/04/02 06:08:49;;;;;;;8.90;8.50;;;24.30;99.90;;;;;;5092950;28;20031;-59
2021/04/02 06:11:17;;;;;;;9.40;8.80;;;24.20;99.90;;;;;;5094421;28;20020;-57
2021/04/02 06:13:44;;;;;;;8.85;8.43;;;24.20;99.90;;;;;;5094326;28;20074;-58
2021/04/02 06:16:11;;;;;;;8.50;8.02;;;24.10;99.90;;;;;;5094159;28;20024;-59
2021/04/02 06:18:40;;;;;;;8.60;8.10;;;24.00;99.90;;;;;;5094313;28;20020;-59
2021/04/02 06:21:08;;;;;;;8.88;8.38;;;24.00;99.90;;;;;;5094176;28;20366;-58
2021/04/02 06:23:38;;;;;;;8.75;8.35;;;23.80;99.90;;;;;;5094032;28;20020;-58
2021/04/02 06:26:10;;;;;;;8.50;8.00;;;23.70;99.90;;;;;;5093874;28;20387;-59
2021/04/02 06:28:39;;;;;;;9.60;9.00;;;23.70;99.90;;;;;;5094062;28;20024;-58
2021/04/02 06:31:09;;;;;;;8.70;8.30;;;23.60;99.90;;;;;;5093713;28;20022;-59
2021/04/02 06:33:46;;;;;;;10.15;9.35;;;23.60;99.90;;;;;;5093828;28;20082;-60
2021/04/02 06:36:28;;;;;;;9.27;8.65;;;23.60;99.90;;;;;;5093833;28;20507;-58
2021/04/02 06:39:06;;;;;;;9.18;8.50;;;23.60;99.90;;;;;;5093612;28;20109;-58
2021/04/02 06:41:36;;;;;;;9.90;9.40;;;23.50;99.90;;;;;;5093942;28;20024;-59
2021/04/02 06:44:06;;;;;;;9.95;9.38;;;23.50;99.90;;;;;;5093815;28;20020;-59
2021/04/02 06:46:39;;;;;;;9.68;9.18;;;23.30;99.90;;;;;;5092436;28;20062;-59
2021/04/02 06:49:14;;;;;;;10.55;9.98;;;23.00;99.90;;;;;;5093502;28;20086;-59
2021/04/02 06:51:47;;;;;;;11.00;10.40;;;23.00;99.90;;;;;;5094248;28;20024;-58
2021/04/02 06:54:17;;;;;;;11.00;10.40;;;22.90;99.90;;;;;;5093955;28;20517;-59
2021/04/02 06:56:48;;;;;;;10.83;10.20;;;22.90;99.90;;;;;;5093523;28;20108;-58
2021/04/02 06:59:19;;;;;;;11.63;10.77;;;22.80;99.90;;;;;;5093555;28;20047;-59
2021/04/02 07:01:52;;;;;;;10.75;10.15;;;22.70;99.90;;;;;;5093499;28;20032;-58
2021/04/02 07:04:24;;;;;;;11.35;10.60;;;22.70;99.90;;;;;;5093288;28;20366;-59
2021/04/02 07:06:53;;;;;;;11.70;11.00;;;22.70;99.90;;;;;;5093299;28;20020;-59
2021/04/02 07:09:22;;;;;;;11.60;10.90;;;22.60;99.90;;;;;;5092382;28;20077;-58
2021/04/02 07:11:53;;;;;;;11.18;10.50;;;22.40;99.90;;;;;;5093169;28;20062;-60
2021/04/02 07:14:22;;;;;;;11.10;10.60;;;22.30;99.90;;;;;;5092221;28;20016;-62
2021/04/02 07:16:50;;;;;;;11.55;10.95;;;22.30;99.90;;;;;;5093238;28;20059;-59
2021/04/02 07:19:18;;;;;;;12.80;12.00;;;22.20;99.90;;;;;;5093307;28;20031;-59
2021/04/02 07:21:45;;;;;;;12.93;12.32;;;22.20;99.90;;;;;;5093753;28;20093;-60
2021/04/02 07:24:13;;;;;;;12.88;12.27;;;22.00;99.90;;;;;;5093318;28;20028;-61
2021/04/02 07:26:41;;;;;;;14.73;13.77;;;22.00;99.90;;;;;;5093167;28;20028;-58
2021/04/02 07:29:09;;;;;;;14.32;13.63;;;21.80;99.90;;;;;;5093100;28;20078;-60
2021/04/02 07:31:37;;;;;;;15.52;14.70;;;21.70;99.90;;;;;;5093204;28;20012;-59
2021/04/02 07:34:06;;;;;;;15.02;14.25;;;21.70;99.90;;;;;;5093208;28;20023;-58
2021/04/02 07:36:36;;;;;;;15.77;15.07;;;21.60;99.90;;;;;;5092998;28;20020;-59
2021/04/02 07:39:06;;;;;;;16.35;15.35;;;21.40;99.90;;;;;;5092941;28;20036;-59
2021/04/02 07:41:47;;;;;;;17.73;16.52;;;21.40;99.90;;;;;;5091822;28;20036;-59
2021/04/02 07:44:16;;;;;;;17.90;17.10;;;21.20;99.90;;;;;;5096486;28;20426;-60
2021/04/02 07:47:05;;;;;;;19.02;18.05;;;21.10;99.90;;;;;;5097021;28;20032;-60
2021/04/02 07:49:32;;;;;;;19.60;18.63;;;21.00;99.90;;;;;;5097096;28;20074;-59
2021/04/02 07:52:00;;;;;;;21.17;20.20;;;21.00;99.90;;;;;;5097084;28;20028;-60
2021/04/02 07:54:37;;;;;;;20.92;19.92;;;20.90;99.90;;;;;;5096934;28;20459;-59
2021/04/02 07:57:16;;;;;;;21.40;20.40;;;20.90;99.90;;;;;;5096895;28;20024;-59
2021/04/02 07:59:43;;;;;;;22.55;21.35;;;20.80;99.90;;;;;;5096773;28;20467;-60
2021/04/02 08:02:18;;;;;;;23.95;22.75;;;20.80;99.90;;;;;;5096963;28;20129;-59
2021/04/02 08:04:57;;;;;;;25.67;24.20;;;20.60;99.90;;;;;;5097127;28;20461;-58
2021/04/02 08:07:38;;;;;;;25.83;24.52;;;20.60;99.90;;;;;;5096600;28;20034;-60
2021/04/02 08:10:12;;;;;;;27.65;26.25;;;20.50;99.90;;;;;;5096751;28;20028;-60
2021/04/02 08:12:39;;;;;;;27.75;26.35;;;20.40;99.90;;;;;;5096594;28;20027;-60
2021/04/02 08:15:12;;;;;;;30.90;29.10;;;20.40;99.90;;;;;;5096688;28;20051;-60
2021/04/02 08:17:40;;;;;;;31.58;29.98;;;20.30;99.90;;;;;;5096515;28;20024;-59
2021/04/02 08:20:11;;;;;;;33.15;31.55;;;20.20;99.90;;;;;;5096473;28;20500;-60
2021/04/02 08:22:38;;;;;;;;;;;20.20;99.90;;;;;;5097211;28;20492;-60
2021/04/02 08:25:14;;;;;;;40.75;38.65;;;20.10;99.90;;;;;;5096699;28;19908;-59
2021/04/02 08:27:43;;;;;;;43.67;41.53;;;20.00;99.90;;;;;;5096314;28;20038;-59
2021/04/02 08:30:14;;;;;;;43.65;41.33;;;20.00;99.90;;;;;;5096276;28;20089;-59
2021/04/02 08:32:45;;;;;;;44.72;42.33;;;20.00;99.90;;;;;;5096250;28;20020;-59
2021/04/02 08:35:18;;;;;;;46.47;43.67;;;20.00;99.90;;;;;;5096217;28;20087;-58
2021/04/02 08:38:00;;;;;;;45.95;43.35;;;19.90;99.90;;;;;;5096113;28;20381;-58
2021/04/02 08:40:28;;;;;;;48.35;45.72;;;19.90;99.90;;;;;;5095970;28;20052;-59
2021/04/02 08:43:07;;;;;;;49.88;47.22;;;19.90;99.90;;;;;;5096295;28;20453;-59
2021/04/02 08:45:37;;;;;;;52.95;50.08;;;19.80;99.90;;;;;;5096295;28;20030;-59
2021/04/02 08:48:06;;;;;;;54.92;52.00;;;19.80;99.90;;;;;;5096447;28;20024;-58
2021/04/02 08:50:35;;;;;;;55.70;52.80;;;19.80;99.90;;;;;;5095775;28;20052;-60
2021/04/02 08:53:07;;;;;;;55.92;52.88;;;19.70;99.90;;;;;;5095834;28;20024;-59
2021/04/02 08:55:34;;;;;;;55.85;52.65;;;19.70;99.90;;;;;;5095528;28;20058;-63
2021/04/02 08:58:03;;;;;;;56.35;53.38;;;19.70;99.90;;;;;;5096343;28;20047;-58
2021/04/02 09:00:31;;;;;;;58.30;55.17;;;19.70;99.90;;;;;;5095714;28;20505;-59
2021/04/02 09:02:58;;;;;;;56.40;53.20;;;19.80;99.90;;;;;;5095862;28;20093;-58
2021/04/02 09:05:26;;;;;;;59.15;55.85;;;19.70;99.90;;;;;;5095505;28;20020;-59
2021/04/02 09:07:58;;;;;;;59.35;56.15;;;19.80;99.90;;;;;;5094076;28;20408;-59
2021/04/02 09:10:26;;;;;;;61.55;58.20;;;19.70;99.90;;;;;;5095386;28;20012;-60
2021/04/02 09:12:56;;;;;;;60.75;57.35;;;19.70;99.90;;;;;;5095450;28;20020;-59
2021/04/02 09:15:28;;;;;;;57.45;54.45;;;19.70;99.90;;;;;;5095468;28;20016;-59
2021/04/02 09:18:17;;;;;;;61.67;58.17;;;19.70;99.90;;;;;;5095349;28;20020;-59
2021/04/02 09:20:45;;;;;;;60.30;56.90;;;19.60;99.90;;;;;;5095683;28;20020;-60
2021/04/02 09:23:13;;;;;;;60.45;56.83;;;19.50;99.90;;;;;;5095202;28;20020;-59
2021/04/02 09:25:51;;;;;;;61.47;57.92;;;19.50;99.90;;;;;;5095453;28;20103;-58
2021/04/02 09:28:29;;;;;;;61.50;58.20;;;19.40;99.90;;;;;;5094975;28;20398;-59
2021/04/02 09:31:30;;;;;;;62.60;58.95;;;19.40;99.90;;;;;;5094887;28;20107;-59
2021/04/02 09:34:00;;;;;;;;;;;19.30;99.90;;;;;;5095535;28;20031;-59
2021/04/02 09:36:31;;;;;;;58.78;55.58;;;19.30;99.90;;;;;;5093769;28;19955;-59
2021/04/02 09:39:17;;;;;;;;;;;19.20;99.90;;;;;;5095169;28;20504;-58
2021/04/02 09:42:00;;;;;;;58.50;55.13;;;19.10;99.90;;;;;;5095157;28;19911;-59
2021/04/02 09:44:30;;;;;;;58.13;54.80;;;19.10;99.90;;;;;;5094900;28;20487;-60
2021/04/02 09:47:12;;;;;;;59.90;56.60;;;19.00;99.90;;;;;;5094807;28;20020;-59
2021/04/02 09:49:41;;;;;;;62.25;58.70;;;18.90;99.90;;;;;;5094566;28;20028;-59
2021/04/02 09:52:09;;;;;;;61.80;58.40;;;18.90;99.90;;;;;;5094625;28;20423;-60
2021/04/02 09:54:38;;;;;;;64.57;60.95;;;18.90;99.90;;;;;;5094819;28;20099;-59
2021/04/02 09:57:10;;;;;;;68.55;64.90;;;18.80;99.90;;;;;;5094644;28;20019;-60
2021/04/02 09:59:38;;;;;;;67.35;63.63;;;18.80;99.90;;;;;;5094422;28;20052;-60
2021/04/02 10:02:06;;;;;;;67.22;63.60;;;18.80;99.90;;;;;;5094496;28;20102;-59
2021/04/02 10:04:33;;;;;;;65.32;61.63;;;18.70;99.90;;;;;;5094292;28;20035;-60
2021/04/02 10:07:01;;;;;;;68.82;65.05;;;18.70;99.90;;;;;;5093665;28;20020;-59
2021/04/02 10:09:29;;;;;;;69.28;65.28;;;18.70;99.90;;;;;;5094099;28;20423;-59
2021/04/02 10:11:56;;;;;;;68.90;65.20;;;18.60;99.90;;;;;;5093154;28;20077;-59
2021/04/02 10:14:23;;;;;;;69.70;65.88;;;18.60;99.90;;;;;;5094235;28;20016;-59
2021/04/02 10:16:51;;;;;;;70.88;67.18;;;18.60;99.90;;;;;;5092843;28;20421;-60
2021/04/02 10:19:19;;;;;;;69.15;65.32;;;18.50;99.90;;;;;;5094253;28;20147;-59
2021/04/02 10:21:46;;;;;;;72.95;68.97;;;18.60;99.90;;;;;;5093894;28;20542;-61
2021/04/02 10:24:14;;;;;;;71.05;67.15;;;18.60;99.90;;;;;;5094010;28;20103;-59
2021/04/02 10:26:43;;;;;;;71.88;67.97;;;18.50;99.90;;;;;;5094053;28;20061;-60
2021/04/02 10:29:10;;;;;;;71.38;67.45;;;18.60;99.90;;;;;;5093828;28;20023;-59
2021/04/02 10:31:38;;;;;;;70.45;66.47;;;18.50;99.90;;;;;;5094230;28;20026;-59
2021/04/02 10:34:05;;;;;;;70.60;66.80;;;18.50;99.90;;;;;;5094256;28;20027;-59
2021/04/02 10:36:32;;;;;;;70.57;66.78;;;18.40;99.90;;;;;;5093874;28;20069;-60
2021/04/02 10:39:00;;;;;;;69.47;65.72;;;18.40;99.90;;;;;;5094019;28;20396;-59
2021/04/02 10:41:27;;;;;;;70.07;66.32;;;18.30;99.90;;;;;;5092961;28;20103;-59
2021/04/02 10:43:54;;;;;;;71.13;67.22;;;18.30;99.90;;;;;;5092901;28;20540;-60
2021/04/02 10:46:22;;;;;;;70.38;66.57;;;18.30;99.90;;;;;;5091785;28;20028;-59
2021/04/02 10:48:49;;;;;;;70.40;66.22;;;18.30;99.90;;;;;;5093420;28;20027;-59
2021/04/02 10:51:17;;;;;;;69.57;65.70;;;18.30;99.90;;;;;;5092915;28;20020;-59
2021/04/02 10:53:45;;;;;;;67.57;63.75;;;18.30;99.90;;;;;;5092720;28;20028;-60
2021/04/02 10:56:12;;;;;;;67.97;64.18;;;18.20;99.90;;;;;;5092754;28;20024;-59
2021/04/02 10:58:40;;;;;;;65.15;61.45;;;18.20;99.90;;;;;;5092640;28;20051;-60
2021/04/02 11:01:08;;;;;;;65.00;61.40;;;18.10;99.90;;;;;;5091563;28;20035;-59
2021/04/02 11:03:35;;;;;;;67.85;64.03;;;18.10;99.90;;;;;;5092958;28;20557;-60
2021/04/02 11:06:03;;;;;;;64.85;61.15;;;18.10;99.90;;;;;;5092655;28;20029;-58
2021/04/02 11:08:30;;;;;;;65.38;61.38;;;18.10;99.90;;;;;;5092580;28;20052;-59
2021/04/02 11:10:57;;;;;;;65.18;61.47;;;18.10;99.90;;;;;;5092842;28;20024;-60
2021/04/02 11:13:25;;;;;;;69.30;65.40;;;18.10;99.90;;;;;;5092794;28;20048;-59
2021/04/02 11:15:52;;;;;;;68.95;64.80;;;18.00;99.90;;;;;;5092513;28;20374;-59
2021/04/02 11:18:19;;;;;;;72.88;68.75;;;18.00;99.90;;;;;;5089888;28;20032;-60
2021/04/02 11:20:47;;;;;;;72.35;68.25;;;17.90;99.90;;;;;;5092515;28;20055;-60
2021/04/02 11:23:18;;;;;;;69.47;65.57;;;17.90;99.90;;;;;;5091151;28;20115;-59
2021/04/02 11:25:48;;;;;;;66.10;62.40;;;17.90;99.90;;;;;;5092444;28;20443;-59
2021/04/02 11:28:15;;;;;;;68.85;65.10;;;17.90;99.90;;;;;;5092349;28;20020;-59
2021/04/02 11:30:43;;;;;;;67.80;64.00;;;17.90;99.90;;;;;;5091214;28;20036;-59
2021/04/02 11:33:10;;;;;;;71.65;67.47;;;17.90;99.90;;;;;;5092416;28;20401;-59
2021/04/02 11:35:37;;;;;;;71.68;67.75;;;17.90;99.90;;;;;;5092411;28;20020;-58
2021/04/02 11:38:05;;;;;;;70.20;66.30;;;17.80;99.90;;;;;;5092324;28;20040;-59
2021/04/02 11:40:34;;;;;;;67.35;63.45;;;17.80;99.90;;;;;;5010515;28;2338110;-58
2021/04/02 11:43:01;;;;;;;71.65;67.65;;;17.80;99.90;;;;;;5093001;28;20036;-59
2021/04/02 11:45:29;;;;;;;70.90;67.03;;;17.90;99.90;;;;;;5091768;28;20054;-59
2021/04/02 11:47:56;;;;;;;67.88;63.97;;;17.80;99.90;;;;;;5093529;28;20111;-60
2021/04/02 11:50:23;;;;;;;72.47;68.57;;;17.80;99.90;;;;;;5093032;28;20024;-60
2021/04/02 11:52:51;;;;;;;72.45;68.35;;;17.80;99.90;;;;;;5093559;28;20048;-59
2021/04/02 11:55:18;;;;;;;74.93;70.82;;;17.80;99.90;;;;;;5092969;28;20031;-59
2021/04/02 11:57:45;;;;;;;73.60;69.40;;;17.70;99.90;;;;;;5093014;28;20036;-59
2021/04/02 12:00:17;;;;;;;74.78;70.57;;;17.70;99.90;;;;;;5092954;28;20020;-60
2021/04/02 12:02:44;;;;;;;74.50;70.43;;;17.60;99.90;;;;;;5091715;28;20384;-59
2021/04/02 12:05:17;;;;;;;75.63;71.63;;;17.60;99.90;;;;;;5093253;28;20020;-59
2021/04/02 12:07:44;;;;;;;71.57;67.57;;;17.50;99.90;;;;;;5092031;28;20027;-58
2021/04/02 12:10:12;;;;;;;80.40;76.10;;;17.50;99.90;;;;;;5091121;28;20032;-59
2021/04/02 12:12:39;;;;;;;75.22;71.20;;;17.50;99.90;;;;;;5092927;28;20103;-61
2021/04/02 12:15:07;;;;;;;75.10;70.97;;;17.40;99.90;;;;;;5093358;28;20021;-60
2021/04/02 12:17:36;;;;;;;74.57;70.50;;;17.50;99.90;;;;;;5092835;28;20495;-58
2021/04/02 12:20:06;;;;;;;78.90;74.43;;;17.50;99.90;;;;;;5092747;28;20024;-58
2021/04/02 12:22:34;;;;;;;78.72;74.32;;;17.40;99.90;;;;;;5092836;28;20027;-60
2021/04/02 12:25:05;;;;;;;80.75;76.47;;;17.40;99.90;;;;;;5092789;28;20065;-59
2021/04/02 12:27:33;;;;;;;72.95;68.85;;;17.40;99.90;;;;;;5092523;28;20047;-60
2021/04/02 12:30:00;;;;;;;73.45;69.43;;;17.40;99.90;;;;;;5094877;28;20112;-59
2021/04/02 12:32:28;;;;;;;80.85;76.28;;;17.50;99.90;;;;;;5095017;28;20407;-58
2021/04/02 12:34:55;;;;;;;75.05;70.75;;;17.70;99.90;;;;;;5096362;28;20042;-59
2021/04/02 12:37:26;;;;;;;73.78;69.38;;;17.60;99.90;;;;;;5096862;28;20024;-61
2021/04/02 12:39:53;;;;;;;79.32;74.70;;;17.60;99.90;;;;;;5094708;28;20052;-58
2021/04/02 12:42:20;;;;;;;78.78;74.18;;;17.60;99.90;;;;;;5094770;28;20119;-60
2021/04/02 12:44:47;;;;;;;76.80;72.45;;;17.60;99.90;;;;;;5096916;28;20036;-59
2021/04/02 12:47:15;;;;;;;77.03;72.72;;;17.50;99.90;;;;;;5096049;28;20477;-59
2021/04/02 12:49:42;;;;;;;78.18;73.80;;;17.40;99.90;;;;;;5095946;28;20019;-59
2021/04/02 12:52:10;;;;;;;83.18;78.47;;;17.40;99.90;;;;;;5095896;28;20409;-59